createdAt,value
2023-02-17T00:04:13.332Z,12.37
2023-02-17T00:09:15.306Z,12.39
2023-02-17T00:14:16.909Z,12.41
2023-02-17T00:19:25.263Z,12.41
2023-02-17T00:24:29.372Z,12.42
2023-02-17T00:29:31.033Z,12.35
2023-02-17T00:34:32.592Z,12.37
2023-02-17T00:39:34.136Z,12.39
2023-02-17T00:44:35.616Z,12.33
2023-02-17T00:49:37.199Z,12.27
2023-02-17T00:54:39.408Z,12.24
2023-02-17T00:59:40.981Z,12.27
2023-02-17T01:04:42.441Z,12.28
2023-02-17T01:09:43.868Z,12.36
2023-02-17T01:14:45.277Z,12.42
2023-02-17T01:19:46.690Z,12.46
2023-02-17T01:24:48.113Z,12.51
2023-02-17T01:29:49.568Z,12.54
2023-02-17T01:34:51.047Z,12.52
2023-02-17T01:39:52.476Z,12.46
2023-02-17T01:45:18.706Z,12.43
2023-02-17T01:50:24.880Z,12.32
2023-02-17T01:55:27.083Z,12.22
2023-02-17T02:00:32.315Z,12.16
2023-02-17T02:05:35.491Z,12.18
2023-02-17T02:10:38.990Z,12.25
2023-02-17T02:16:06.814Z,12.27
2023-02-17T02:21:24.268Z,12.25
2023-02-17T02:27:09.898Z,12.24
2023-02-17T02:32:59.423Z,12.23
2023-02-17T02:38:10.866Z,12.20
2023-02-17T02:43:13.212Z,12.14
2023-02-17T02:48:14.657Z,12.10
2023-02-17T02:53:27.954Z,12.06
2023-02-17T02:58:44.579Z,12.01
2023-02-17T03:04:05.030Z,11.95
2023-02-17T03:09:11.618Z,11.91
2023-02-17T03:14:17.457Z,11.82
2023-02-17T03:19:22.064Z,11.75
2023-02-17T03:24:23.606Z,11.63
2023-02-17T03:29:25.033Z,11.60
2023-02-17T03:34:26.477Z,11.55
2023-02-17T03:39:27.921Z,11.50
2023-02-17T03:44:29.509Z,11.36
2023-02-17T03:49:31.069Z,11.26
2023-02-17T03:54:32.636Z,11.20
2023-02-17T03:59:34.129Z,11.18
2023-02-17T04:04:36.387Z,11.14
2023-02-17T04:09:37.894Z,11.07
2023-02-17T04:14:39.321Z,11.11
2023-02-17T04:19:40.792Z,11.12
2023-02-17T04:24:42.457Z,11.14
2023-02-17T04:29:43.913Z,11.15
2023-02-17T04:34:45.305Z,11.18
2023-02-17T04:39:46.740Z,11.26
2023-02-17T04:44:48.195Z,11.36
2023-02-17T04:49:49.630Z,11.44
2023-02-17T04:54:51.188Z,11.50
2023-02-17T04:59:52.844Z,11.57
2023-02-17T05:04:54.734Z,11.58
2023-02-17T05:09:56.229Z,11.58
2023-02-17T05:14:57.635Z,11.57
2023-02-17T05:19:59.398Z,11.52
2023-02-17T05:25:01.916Z,11.50
2023-02-17T05:30:04.237Z,11.48
2023-02-17T05:35:06.044Z,11.43
2023-02-17T05:40:08.576Z,11.38
2023-02-17T05:45:10.514Z,11.32
2023-02-17T05:50:12.528Z,11.25
2023-02-17T05:55:14.090Z,11.27
2023-02-17T06:00:16.045Z,11.20
2023-02-17T06:05:17.592Z,11.15
2023-02-17T06:10:19.078Z,11.16
2023-02-17T06:15:20.688Z,11.17
2023-02-17T06:20:22.250Z,11.16
2023-02-17T06:25:23.690Z,11.20
2023-02-17T06:30:25.263Z,11.19
2023-02-17T06:35:26.815Z,11.21
2023-02-17T06:40:28.901Z,11.21
2023-02-17T06:45:30.446Z,11.25
2023-02-17T06:50:31.952Z,11.29
2023-02-17T06:55:35.394Z,11.34
2023-02-17T07:00:37.000Z,11.42
2023-02-17T07:05:40.207Z,11.46
2023-02-17T07:10:41.724Z,11.51
2023-02-17T07:15:43.197Z,11.54
2023-02-17T07:20:44.661Z,11.54
2023-02-17T07:25:46.125Z,11.58
2023-02-17T07:30:47.750Z,11.67
2023-02-17T07:35:49.224Z,11.71
2023-02-17T07:40:50.674Z,11.82
2023-02-17T07:45:54.961Z,11.87
2023-02-17T07:50:56.930Z,11.91
2023-02-17T07:55:58.388Z,12.00
2023-02-17T08:01:08.043Z,12.08
2023-02-17T08:06:14.878Z,12.16
2023-02-17T08:11:35.500Z,12.20
2023-02-17T08:16:36.999Z,12.16
2023-02-17T08:21:39.420Z,12.16
2023-02-17T08:26:40.903Z,12.14
2023-02-17T08:31:42.918Z,12.14
2023-02-17T08:36:44.480Z,12.53
2023-02-17T08:41:46.675Z,12.67
2023-02-17T08:46:49.892Z,12.82
2023-02-17T08:51:52.240Z,12.58
2023-02-17T08:56:53.704Z,12.37
2023-02-17T09:01:55.763Z,12.26
2023-02-17T09:06:58.350Z,12.24
2023-02-17T09:11:59.825Z,12.28
2023-02-17T09:17:01.376Z,12.28
2023-02-17T09:22:02.793Z,12.27
2023-02-17T09:27:04.248Z,12.47
2023-02-17T09:32:09.258Z,12.54
2023-02-17T09:37:12.307Z,12.57
2023-02-17T09:42:25.597Z,12.55
2023-02-17T09:47:32.744Z,12.79
2023-02-17T09:52:53.707Z,13.08
2023-02-17T09:57:59.634Z,13.29
2023-02-17T10:03:18.445Z,13.45
2023-02-17T10:08:24.147Z,13.48
2023-02-17T10:13:30.611Z,13.56
2023-02-17T10:18:39.603Z,13.47
2023-02-17T10:23:41.165Z,13.49
2023-02-17T10:28:53.283Z,13.73
2023-02-17T10:34:11.784Z,13.84
2023-02-17T10:39:31.228Z,13.90
2023-02-17T10:44:37.318Z,13.91
2023-02-17T10:49:45.672Z,13.84
2023-02-17T10:54:59.882Z,13.86
2023-02-17T11:00:01.480Z,13.76
2023-02-17T11:05:02.969Z,13.89
2023-02-17T11:10:24.212Z,14.19
2023-02-17T11:15:43.123Z,14.05
2023-02-17T11:20:44.549Z,13.85
2023-02-17T11:25:59.367Z,13.65
2023-02-17T11:31:04.697Z,13.67
2023-02-17T11:36:10.680Z,13.50
2023-02-17T11:41:12.613Z,13.46
2023-02-17T11:46:22.216Z,13.28
2023-02-17T11:51:39.331Z,13.16
2023-02-17T11:57:00.925Z,13.13
2023-02-17T12:02:17.701Z,13.11
2023-02-17T12:07:37.657Z,13.10
2023-02-17T12:12:58.649Z,13.18
2023-02-17T12:18:17.179Z,13.32
2023-02-17T12:23:35.954Z,13.45
2023-02-17T12:29:06.143Z,13.50
2023-02-17T12:34:21.711Z,13.51
2023-02-17T12:39:43.144Z,13.53
2023-02-17T12:44:49.588Z,13.57
2023-02-17T12:50:14.134Z,13.65
2023-02-17T12:55:22.986Z,13.78
2023-02-17T13:00:34.265Z,13.81
2023-02-17T13:05:52.081Z,14.10
2023-02-17T13:11:08.542Z,14.48
2023-02-17T13:16:13.617Z,14.55
2023-02-17T13:21:18.151Z,14.40
2023-02-17T13:26:21.315Z,14.28
2023-02-17T13:31:25.609Z,14.26
2023-02-17T13:36:27.364Z,14.35
2023-02-17T13:41:43.700Z,14.41
2023-02-17T13:46:46.152Z,14.46
2023-02-17T13:51:48.106Z,14.47
2023-02-17T13:56:52.034Z,14.43
2023-02-17T14:01:54.946Z,14.24
2023-02-17T14:07:03.873Z,14.05
2023-02-17T14:12:08.265Z,13.93
2023-02-17T14:17:32.435Z,13.96
2023-02-17T14:22:35.870Z,13.98
2023-02-17T14:27:41.668Z,14.01
2023-02-17T14:32:43.133Z,14.02
2023-02-17T14:37:44.704Z,13.96
2023-02-17T14:42:47.063Z,14.00
2023-02-17T14:47:48.596Z,14.07
2023-02-17T14:52:52.645Z,14.10
2023-02-17T14:57:54.462Z,14.08
2023-02-17T15:02:56.000Z,14.07
2023-02-17T15:08:01.533Z,14.04
2023-02-17T15:13:04.508Z,14.01
2023-02-17T15:18:06.017Z,13.98
2023-02-17T15:23:26.348Z,14.00
2023-02-17T15:28:27.786Z,14.00
2023-02-17T15:33:29.224Z,14.00
2023-02-17T15:38:30.738Z,14.00
2023-02-17T15:48:39.156Z,14.03
2023-02-17T15:53:41.590Z,14.05
2023-02-17T15:58:44.105Z,14.10
2023-02-17T16:03:45.539Z,14.13
2023-02-17T16:08:46.995Z,14.15
2023-02-17T16:13:48.676Z,14.13
2023-02-17T16:18:50.868Z,14.10
2023-02-17T16:23:59.663Z,14.07
2023-02-17T16:29:03.141Z,14.03
2023-02-17T16:34:04.609Z,13.99
2023-02-17T16:39:17.943Z,13.93
2023-02-17T16:44:22.147Z,13.89
2023-02-17T16:49:32.573Z,13.87
2023-02-17T16:54:35.683Z,13.85
2023-02-17T16:59:37.309Z,13.79
2023-02-17T17:04:39.317Z,13.62
2023-02-17T17:09:40.958Z,13.48
2023-02-17T17:14:43.349Z,13.46
2023-02-17T17:19:44.760Z,13.50
2023-02-17T17:24:46.191Z,13.54
2023-02-17T17:29:47.656Z,13.62
2023-02-17T17:34:52.037Z,13.65
2023-02-17T17:39:53.480Z,13.66
2023-02-17T17:44:54.873Z,13.65
2023-02-17T17:49:56.282Z,13.65
2023-02-17T17:54:57.712Z,13.63
2023-02-17T17:59:59.253Z,13.61
2023-02-17T18:05:01.174Z,13.53
2023-02-17T18:10:04.719Z,13.53
2023-02-17T18:15:07.598Z,13.50
2023-02-17T18:20:10.925Z,13.47
2023-02-17T18:25:12.647Z,13.49
2023-02-17T18:30:17.712Z,13.57
2023-02-17T18:35:19.755Z,13.54
2023-02-17T18:40:21.697Z,13.53
2023-02-17T18:45:25.264Z,13.51
2023-02-17T18:50:27.070Z,13.49
2023-02-17T18:55:28.539Z,13.45
2023-02-17T19:00:30.185Z,13.44
2023-02-17T19:05:31.648Z,13.42
2023-02-17T19:10:33.209Z,13.43
2023-02-17T19:15:34.735Z,13.42
2023-02-17T19:20:36.437Z,13.40
2023-02-17T19:25:38.629Z,13.36
2023-02-17T19:30:40.069Z,13.35
2023-02-17T19:35:42.848Z,13.32
2023-02-17T19:40:44.927Z,13.18
2023-02-17T19:45:46.639Z,13.04
2023-02-17T19:50:48.051Z,12.88
2023-02-17T19:55:49.506Z,12.71
2023-02-17T20:00:51.050Z,12.59
2023-02-17T20:05:52.516Z,12.48
2023-02-17T20:10:54.024Z,12.44
2023-02-17T20:16:07.390Z,12.42
2023-02-17T20:21:12.464Z,12.48
2023-02-17T20:26:17.048Z,12.51
2023-02-17T20:31:18.942Z,12.53
2023-02-17T20:36:22.175Z,12.61
2023-02-17T20:41:24.295Z,12.65
2023-02-17T20:46:28.286Z,12.63
2023-02-17T20:51:29.812Z,12.66
2023-02-17T20:56:37.108Z,12.73
2023-02-17T21:01:39.797Z,12.73
2023-02-17T21:06:42.997Z,12.78
2023-02-17T21:11:45.455Z,12.80
2023-02-17T21:16:47.390Z,12.87
2023-02-17T21:21:48.925Z,12.91
2023-02-17T21:26:50.422Z,12.98
2023-02-17T21:31:53.041Z,13.09
2023-02-17T21:36:54.518Z,13.15
2023-02-17T21:41:55.974Z,13.21
2023-02-17T21:46:57.531Z,13.22
2023-02-17T21:51:58.992Z,13.24
2023-02-17T21:57:00.413Z,13.22
2023-02-17T22:02:01.869Z,13.26
2023-02-17T22:07:03.299Z,13.24
2023-02-17T22:12:04.958Z,13.25
2023-02-17T22:17:06.383Z,13.25
2023-02-17T22:22:07.801Z,13.25
2023-02-17T22:27:09.240Z,13.26
2023-02-17T22:32:10.777Z,13.29
2023-02-17T22:37:12.204Z,13.25
2023-02-17T22:42:13.707Z,13.23
2023-02-17T22:47:15.672Z,13.23
2023-02-17T22:52:17.123Z,13.25
2023-02-17T22:57:18.664Z,13.26
2023-02-17T23:02:20.058Z,13.30
2023-02-17T23:07:23.565Z,13.33
2023-02-17T23:12:26.479Z,13.34
2023-02-17T23:17:47.916Z,13.34
2023-02-17T23:22:49.348Z,13.36
2023-02-17T23:27:50.855Z,13.37
2023-02-17T23:32:52.321Z,13.37
2023-02-17T23:37:53.765Z,13.42
2023-02-17T23:42:55.633Z,13.37
2023-02-17T23:47:57.200Z,13.37
2023-02-17T23:52:58.830Z,13.37
2023-02-17T23:58:00.715Z,13.37
